createdAt,value
2018-05-17T00:00:01.835Z,0
2018-05-17T00:01:11.923Z,0
2018-05-17T00:02:21.754Z,0
2018-05-17T00:03:31.862Z,0
2018-05-17T00:04:41.674Z,0
2018-05-17T00:05:51.756Z,0
2018-05-17T00:07:01.846Z,0
2018-05-17T00:08:11.920Z,0
2018-05-17T00:09:21.745Z,0
2018-05-17T00:10:31.602Z,0
2018-05-17T00:11:41.686Z,0
2018-05-17T00:12:51.763Z,0
2018-05-17T00:14:01.839Z,0
2018-05-17T00:15:11.934Z,0
2018-05-17T00:16:22.024Z,0
2018-05-17T00:17:32.087Z,0
2018-05-17T00:18:42.181Z,0
2018-05-17T00:19:51.997Z,0
2018-05-17T00:21:01.871Z,0
2018-05-17T00:22:12.014Z,0
2018-05-17T00:23:22.092Z,0
2018-05-17T00:24:32.211Z,0
2018-05-17T00:25:42.298Z,0
2018-05-17T00:26:52.378Z,0
2018-05-17T00:28:02.448Z,0
2018-05-17T00:29:12.521Z,0
2018-05-17T00:30:22.586Z,0
2018-05-17T00:31:32.665Z,0
2018-05-17T00:32:42.765Z,0
2018-05-17T00:33:52.901Z,0
2018-05-17T00:35:02.980Z,0
2018-05-17T00:36:13.050Z,0
2018-05-17T00:37:23.117Z,0
2018-05-17T00:38:32.922Z,0
2018-05-17T00:39:43.067Z,0
2018-05-17T00:40:53.144Z,0
2018-05-17T00:42:03.216Z,0
2018-05-17T00:43:13.315Z,0
2018-05-17T00:44:23.382Z,0
2018-05-17T00:45:33.251Z,0
2018-05-17T00:46:43.062Z,0
2018-05-17T00:47:53.149Z,0
2018-05-17T00:49:03.226Z,0
2018-05-17T00:50:13.314Z,0
2018-05-17T00:51:23.387Z,0
2018-05-17T00:52:33.642Z,0
2018-05-17T00:53:43.722Z,0
2018-05-17T00:54:53.538Z,0
2018-05-17T00:56:03.356Z,0
2018-05-17T00:57:13.428Z,0
2018-05-17T00:58:23.236Z,0
2018-05-17T00:59:33.072Z,0
2018-05-17T01:00:43.152Z,0
2018-05-17T01:01:53.233Z,0
2018-05-17T01:03:03.141Z,0
2018-05-17T01:04:13.206Z,0
2018-05-17T01:05:23.293Z,0
2018-05-17T01:06:33.381Z,0
2018-05-17T01:07:43.460Z,0
2018-05-17T01:08:53.325Z,0
2018-05-17T01:10:03.409Z,0
2018-05-17T01:11:13.207Z,0
2018-05-17T01:12:23.268Z,0
2018-05-17T01:13:33.190Z,0
2018-05-17T01:14:43.277Z,0
2018-05-17T01:15:53.372Z,0
2018-05-17T01:17:03.445Z,0
2018-05-17T01:18:13.527Z,0
2018-05-17T01:19:23.704Z,0
2018-05-17T01:20:33.507Z,0
2018-05-17T01:21:43.575Z,0
2018-05-17T01:22:53.658Z,0
2018-05-17T01:24:03.741Z,0
2018-05-17T01:25:13.812Z,0
2018-05-17T01:26:23.995Z,0
2018-05-17T01:27:34.071Z,0
2018-05-17T01:28:44.140Z,0
2018-05-17T01:29:54.222Z,0
2018-05-17T01:31:04.038Z,0
2018-05-17T01:32:14.107Z,0
2018-05-17T01:33:24.180Z,0
2018-05-17T01:34:34.266Z,0
2018-05-17T01:35:44.087Z,0
2018-05-17T01:36:54.164Z,0
2018-05-17T01:38:04.285Z,0
2018-05-17T01:39:14.361Z,0
2018-05-17T01:40:24.430Z,0
2018-05-17T01:41:34.537Z,0
2018-05-17T01:42:44.375Z,0
2018-05-17T01:43:54.494Z,0
2018-05-17T01:45:04.571Z,0
2018-05-17T01:46:14.385Z,0
2018-05-17T01:47:24.452Z,0
2018-05-17T01:48:34.257Z,0
2018-05-17T01:49:44.430Z,0
2018-05-17T01:50:54.510Z,0
2018-05-17T01:52:04.580Z,0
2018-05-17T01:53:14.654Z,0
2018-05-17T01:54:24.739Z,0
2018-05-17T01:55:34.794Z,0
2018-05-17T01:56:44.341Z,0
2018-05-17T01:57:54.170Z,0
2018-05-17T01:59:03.986Z,0
2018-05-17T02:00:14.173Z,0
2018-05-17T02:01:24.281Z,0
2018-05-17T02:02:34.378Z,0
2018-05-17T02:03:44.464Z,0
2018-05-17T02:04:54.292Z,0
2018-05-17T02:06:04.483Z,0
2018-05-17T02:07:14.564Z,0
2018-05-17T02:08:24.637Z,0
2018-05-17T02:09:34.767Z,0
2018-05-17T02:10:44.852Z,0
2018-05-17T02:11:54.679Z,0
2018-05-17T02:13:04.786Z,0
2018-05-17T02:14:14.862Z,0
2018-05-17T02:15:24.684Z,0
2018-05-17T02:16:34.765Z,0
2018-05-17T02:17:44.888Z,0
2018-05-17T02:18:54.721Z,0
2018-05-17T02:20:04.795Z,0
2018-05-17T02:21:14.850Z,0
2018-05-17T02:22:24.654Z,0
2018-05-17T02:23:34.464Z,0
2018-05-17T02:24:44.292Z,0
2018-05-17T02:25:54.374Z,0
2018-05-17T02:27:04.446Z,0
2018-05-17T02:28:14.521Z,0
2018-05-17T02:29:24.599Z,0
2018-05-17T02:30:34.683Z,0
2018-05-17T02:31:44.775Z,0
2018-05-17T02:32:54.865Z,0
2018-05-17T02:34:04.682Z,0
2018-05-17T02:35:14.772Z,0
2018-05-17T02:36:24.574Z,0
2018-05-17T02:37:34.647Z,0
2018-05-17T02:38:44.721Z,0
2018-05-17T02:39:54.819Z,4
2018-05-17T02:41:04.897Z,4
2018-05-17T02:42:15.037Z,0
2018-05-17T02:43:25.115Z,0
2018-05-17T02:44:34.941Z,4
2018-05-17T02:45:45.015Z,4
2018-05-17T02:46:55.087Z,4
2018-05-17T02:48:05.234Z,4
2018-05-17T02:49:15.603Z,8
2018-05-17T02:50:25.411Z,8
2018-05-17T02:51:35.493Z,8
2018-05-17T02:52:45.304Z,12
2018-05-17T02:53:55.394Z,12
2018-05-17T02:55:05.470Z,12
2018-05-17T02:56:15.564Z,16
2018-05-17T02:57:25.370Z,20
2018-05-17T02:58:34.665Z,24
2018-05-17T02:59:44.467Z,28
2018-05-17T03:00:54.017Z,32
2018-05-17T03:02:04.096Z,36
2018-05-17T03:34:32.480Z,432
2018-05-17T03:35:42.546Z,456
2018-05-17T03:36:52.612Z,488
2018-05-17T03:38:02.146Z,508
2018-05-17T03:39:12.222Z,528
2018-05-17T03:40:22.300Z,540
2018-05-17T03:41:32.367Z,552
2018-05-17T03:42:42.434Z,564
2018-05-17T03:43:52.479Z,588
2018-05-17T03:45:02.289Z,624
2018-05-17T03:46:12.420Z,668
2018-05-17T03:47:22.489Z,712
2018-05-17T03:48:32.562Z,744
2018-05-17T03:49:42.663Z,748
2018-05-17T03:50:52.733Z,760
2018-05-17T03:52:02.879Z,788
2018-05-17T03:53:12.973Z,824
2018-05-17T03:54:23.046Z,868
2018-05-17T03:55:33.115Z,904
2018-05-17T03:56:43.198Z,928
2018-05-17T03:57:53.282Z,952
2018-05-17T03:59:03.366Z,968
2018-05-17T04:00:13.438Z,972
2018-05-17T04:01:23.387Z,964
2018-05-17T04:02:33.764Z,940
2018-05-17T04:03:43.906Z,932
2018-05-17T04:04:53.985Z,996
2018-05-17T04:06:04.068Z,1100
2018-05-17T04:07:14.162Z,1188
2018-05-17T04:08:24.242Z,1312
2018-05-17T04:09:34.117Z,1404
2018-05-17T04:10:44.185Z,1500
2018-05-17T04:11:54.012Z,1576
2018-05-17T04:13:04.143Z,1636
2018-05-17T04:14:14.222Z,1744
2018-05-17T04:15:24.338Z,1824
2018-05-17T04:16:34.150Z,2248
2018-05-17T04:17:44.231Z,2224
2018-05-17T04:18:54.054Z,2440
2018-05-17T04:20:04.143Z,2436
2018-05-17T04:21:14.012Z,2752
2018-05-17T04:22:24.102Z,2940
2018-05-17T04:23:34.193Z,3160
2018-05-17T04:24:44.293Z,3268
2018-05-17T04:25:54.384Z,3424
2018-05-17T04:27:04.464Z,3524
2018-05-17T04:28:14.315Z,3000
2018-05-17T04:29:24.641Z,2848
2018-05-17T04:30:34.728Z,3208
2018-05-17T04:31:44.869Z,6124
2018-05-17T04:32:54.953Z,6192
2018-05-17T04:34:04.761Z,6396
2018-05-17T04:35:14.850Z,6380
2018-05-17T04:36:24.946Z,6252
2018-05-17T04:37:35.015Z,6748
2018-05-17T04:38:45.116Z,4484
2018-05-17T04:39:54.929Z,6928
2018-05-17T04:41:05.032Z,5004
2018-05-17T04:42:15.119Z,5212
2018-05-17T04:43:24.939Z,6572
2018-05-17T04:44:35.055Z,4720
2018-05-17T04:45:45.145Z,6020
2018-05-17T04:46:54.947Z,6852
2018-05-17T04:48:05.045Z,6992
2018-05-17T04:49:15.152Z,8036
2018-05-17T04:50:24.984Z,5912
2018-05-17T04:51:35.070Z,7968
2018-05-17T04:52:45.160Z,7792
2018-05-17T04:53:54.983Z,7336
2018-05-17T04:55:05.092Z,7380
2018-05-17T04:56:15.181Z,6984
2018-05-17T04:57:24.996Z,6836
2018-05-17T04:58:35.065Z,3600
2018-05-17T04:59:44.888Z,5644
2018-05-17T05:00:54.742Z,5124
2018-05-17T05:02:04.831Z,2940
2018-05-17T05:03:14.900Z,2592
2018-05-17T05:04:24.469Z,2540
2018-05-17T05:05:34.543Z,2572
2018-05-17T05:06:44.633Z,2716
2018-05-17T05:07:54.499Z,2972
2018-05-17T05:09:04.590Z,3328
2018-05-17T05:10:14.737Z,4088
2018-05-17T05:11:24.816Z,3836
2018-05-17T05:12:34.880Z,3404
2018-05-17T05:13:45.023Z,3396
2018-05-17T05:14:54.836Z,3448
2018-05-17T05:16:04.935Z,5000
2018-05-17T05:17:15.026Z,3668
2018-05-17T05:18:25.123Z,3668
2018-05-17T05:19:34.985Z,4052
2018-05-17T05:20:45.091Z,4636
2018-05-17T05:21:55.173Z,6480
2018-05-17T05:23:05.251Z,7488
2018-05-17T05:24:15.348Z,7084
2018-05-17T05:25:25.748Z,6400
2018-05-17T05:26:35.853Z,4548
2018-05-17T05:27:45.943Z,4240
2018-05-17T05:28:55.837Z,4136
2018-05-17T05:30:05.664Z,4244
2018-05-17T05:31:15.279Z,3972
2018-05-17T05:32:25.086Z,3568
2018-05-17T05:33:35.156Z,3236
2018-05-17T05:34:45.222Z,3044
2018-05-17T05:35:55.290Z,2908
2018-05-17T05:37:05.357Z,2780
2018-05-17T05:38:15.429Z,2824
2018-05-17T05:39:24.996Z,3028
2018-05-17T05:40:35.076Z,3168
2018-05-17T05:41:45.149Z,3344
2018-05-17T05:42:55.248Z,3448
2018-05-17T05:44:05.342Z,3600
2018-05-17T05:45:15.414Z,3960
2018-05-17T05:46:25.232Z,4228
2018-05-17T05:47:34.792Z,4912
2018-05-17T05:48:44.919Z,4260
2018-05-17T05:49:54.982Z,4688
2018-05-17T05:51:05.055Z,4432
2018-05-17T05:52:14.899Z,4252
2018-05-17T05:53:25.001Z,4104
2018-05-17T05:54:34.605Z,3904
2018-05-17T05:55:44.687Z,3708
2018-05-17T05:56:54.517Z,3512
2018-05-17T05:58:04.600Z,3412
2018-05-17T05:59:14.716Z,3472
2018-05-17T06:00:24.863Z,3648
2018-05-17T06:01:34.429Z,3904
2018-05-17T06:02:44.259Z,4148
2018-05-17T06:03:54.080Z,4284
2018-05-17T06:05:04.174Z,4348
2018-05-17T06:06:14.048Z,4444
2018-05-17T06:07:24.135Z,4568
2018-05-17T06:08:33.978Z,4492
2018-05-17T06:09:44.057Z,4336
2018-05-17T06:10:54.147Z,4324
2018-05-17T06:12:04.251Z,4584
2018-05-17T06:13:14.093Z,4956
2018-05-17T06:14:24.169Z,5364
2018-05-17T06:15:34.247Z,6176
2018-05-17T06:16:44.050Z,6456
2018-05-17T06:17:54.121Z,6688
2018-05-17T06:19:04.198Z,6236
2018-05-17T06:20:14.290Z,7316
2018-05-17T06:21:24.384Z,6348
2018-05-17T06:22:34.215Z,5708
2018-05-17T06:23:44.403Z,5732
2018-05-17T06:24:54.524Z,5928
2018-05-17T06:26:04.616Z,6124
2018-05-17T06:27:14.711Z,6508
2018-05-17T06:28:24.815Z,6532
2018-05-17T06:29:34.923Z,6304
2018-05-17T06:30:44.986Z,6136
2018-05-17T06:31:54.802Z,6116
2018-05-17T06:33:04.870Z,5816
2018-05-17T06:34:14.937Z,5620
2018-05-17T06:35:25.015Z,5460
2018-05-17T06:36:35.085Z,5348
2018-05-17T06:37:45.438Z,5244
2018-05-17T06:38:55.511Z,5188
2018-05-17T06:40:05.593Z,5124
2018-05-17T06:41:14.676Z,5060
2018-05-17T06:42:24.772Z,5044
2018-05-17T06:43:34.854Z,5040
2018-05-17T06:44:44.672Z,5020
2018-05-17T06:45:54.489Z,4936
2018-05-17T06:47:04.588Z,4784
2018-05-17T06:48:14.412Z,4532
2018-05-17T06:49:24.234Z,4320
2018-05-17T06:50:34.300Z,4188
2018-05-17T06:51:44.362Z,4080
2018-05-17T06:52:54.490Z,4052
2018-05-17T06:54:04.555Z,4060
2018-05-17T06:55:14.640Z,4124
2018-05-17T06:56:24.712Z,4268
2018-05-17T06:57:34.795Z,4468
2018-05-17T06:58:44.884Z,4632
2018-05-17T06:59:54.951Z,4800
2018-05-17T07:01:04.695Z,4896
2018-05-17T07:02:14.884Z,4908
2018-05-17T07:03:25.075Z,4816
2018-05-17T07:04:35.169Z,4740
2018-05-17T07:05:44.715Z,4740
2018-05-17T07:06:54.793Z,4756
2018-05-17T07:08:04.881Z,4704
2018-05-17T07:09:14.435Z,4564
2018-05-17T07:10:24.614Z,4424
2018-05-17T07:11:34.719Z,4340
2018-05-17T07:12:44.796Z,4260
2018-05-17T07:13:54.608Z,4144
2018-05-17T07:15:04.690Z,4100
2018-05-17T07:16:14.787Z,4100
2018-05-17T07:17:24.891Z,4108
2018-05-17T07:18:36.244Z,4140
2018-05-17T07:19:46.864Z,4160
2018-05-17T07:20:56.920Z,4224
2018-05-17T07:22:06.512Z,4284
2018-05-17T07:23:16.598Z,4344
2018-05-17T07:24:26.677Z,4396
2018-05-17T07:25:36.482Z,4432
2018-05-17T07:26:46.580Z,4496
2018-05-17T07:27:56.721Z,4584
2018-05-17T07:29:06.804Z,4676
2018-05-17T07:30:16.615Z,4808
2018-05-17T07:31:26.660Z,4928
2018-05-17T07:32:36.968Z,5032
2018-05-17T07:33:46.520Z,5116
2018-05-17T07:34:56.325Z,5132
2018-05-17T07:36:06.404Z,5084
2018-05-17T07:37:16.500Z,5032
2018-05-17T07:38:26.577Z,4964
2018-05-17T07:39:36.427Z,4820
2018-05-17T07:40:46.255Z,4640
2018-05-17T07:41:56.363Z,4452
2018-05-17T07:43:05.924Z,4304
2018-05-17T07:44:16.019Z,4192
2018-05-17T07:45:25.847Z,4072
2018-05-17T07:46:35.694Z,3924
2018-05-17T07:47:45.805Z,3836
2018-05-17T07:48:55.900Z,3764
2018-05-17T07:50:05.466Z,3740
2018-05-17T07:51:15.292Z,3712
2018-05-17T07:52:25.361Z,3728
2018-05-17T07:53:35.458Z,3744
2018-05-17T07:54:45.543Z,3756
2018-05-17T07:55:55.607Z,3748
2018-05-17T07:57:05.739Z,3708
2018-05-17T07:58:15.834Z,3684
2018-05-17T07:59:25.913Z,3672
2018-05-17T08:00:36.324Z,3676
2018-05-17T08:01:46.712Z,3684
2018-05-17T08:02:56.535Z,3692
2018-05-17T08:04:06.695Z,3688
2018-05-17T08:05:16.797Z,3668
2018-05-17T08:06:26.629Z,3628
2018-05-17T08:07:36.709Z,3616
2018-05-17T08:08:46.552Z,3636
2018-05-17T08:09:56.633Z,3624
2018-05-17T08:11:06.723Z,3624
2018-05-17T08:12:16.823Z,3648
2018-05-17T08:13:26.901Z,3740
2018-05-17T08:14:36.980Z,3828
2018-05-17T08:15:47.078Z,3908
2018-05-17T08:16:57.171Z,4020
2018-05-17T08:18:06.925Z,4104
2018-05-17T08:19:17.034Z,4176
2018-05-17T08:20:27.181Z,4300
2018-05-17T08:21:36.733Z,4424
2018-05-17T08:22:46.804Z,4492
2018-05-17T08:23:56.905Z,4504
2018-05-17T08:25:07.017Z,4532
2018-05-17T08:26:16.899Z,4516
2018-05-17T08:27:26.982Z,4516
2018-05-17T08:28:37.062Z,4524
2018-05-17T08:29:47.146Z,4572
2018-05-17T08:30:57.371Z,4664
2018-05-17T08:32:09.494Z,4816
2018-05-17T08:33:20.513Z,5000
2018-05-17T08:34:30.593Z,5200
2018-05-17T08:35:40.435Z,5392
2018-05-17T08:36:50.643Z,5580
2018-05-17T08:38:00.780Z,5748
2018-05-17T08:39:10.904Z,5908
2018-05-17T08:40:20.755Z,6088
2018-05-17T08:41:30.838Z,6256
2018-05-17T08:42:40.852Z,6460
2018-05-17T08:43:51.039Z,6552
2018-05-17T08:45:01.123Z,6576
2018-05-17T08:46:10.969Z,6560
2018-05-17T08:47:20.791Z,6644
2018-05-17T08:48:30.890Z,6780
2018-05-17T08:49:40.828Z,6888
2018-05-17T08:50:50.899Z,6912
2018-05-17T08:52:01.007Z,6996
2018-05-17T08:53:10.828Z,7024
2018-05-17T08:54:21.184Z,7036
2018-05-17T08:55:31.021Z,7028
2018-05-17T08:56:41.156Z,7012
2018-05-17T08:57:50.719Z,6956
2018-05-17T08:59:00.540Z,6824
2018-05-17T09:00:10.372Z,6688
2018-05-17T09:01:20.445Z,6516
2018-05-17T09:02:30.515Z,6260
2018-05-17T09:03:40.350Z,5996
2018-05-17T09:04:50.508Z,5744
2018-05-17T09:06:00.263Z,5540
2018-05-17T09:07:10.360Z,5420
2018-05-17T09:08:20.470Z,5272
2018-05-17T09:09:30.548Z,5068
2018-05-17T09:10:40.657Z,4988
2018-05-17T09:11:50.792Z,5016
2018-05-17T09:13:00.649Z,5120
2018-05-17T09:14:10.841Z,5288
2018-05-17T09:15:20.687Z,5448
2018-05-17T09:16:30.789Z,5576
2018-05-17T09:17:40.869Z,5680
2018-05-17T09:18:51.004Z,5704
2018-05-17T09:20:01.161Z,5728
2018-05-17T09:21:11.332Z,5768
2018-05-17T09:22:21.407Z,5772
2018-05-17T09:23:31.495Z,5712
2018-05-17T09:24:41.591Z,5696
2018-05-17T09:25:51.677Z,5608
2018-05-17T09:27:01.828Z,5508
2018-05-17T09:28:11.406Z,5392
2018-05-17T09:29:21.378Z,5248
2018-05-17T09:30:31.474Z,5172
2018-05-17T09:31:41.302Z,5044
2018-05-17T09:32:51.138Z,4956
2018-05-17T09:34:00.970Z,4848
2018-05-17T09:35:11.058Z,4784
2018-05-17T09:36:21.146Z,4756
2018-05-17T09:37:31.276Z,4768
2018-05-17T09:38:41.348Z,4880
2018-05-17T09:39:51.446Z,4956
2018-05-17T09:41:01.057Z,4956
2018-05-17T09:42:10.937Z,4964
2018-05-17T09:43:21.058Z,4960
2018-05-17T09:44:31.161Z,4916
2018-05-17T09:45:41.256Z,4856
2018-05-17T09:46:51.341Z,4748
2018-05-17T09:48:01.476Z,4628
2018-05-17T09:49:11.561Z,4512
2018-05-17T09:50:21.659Z,4412
2018-05-17T09:51:31.481Z,4296
2018-05-17T09:52:41.584Z,4172
2018-05-17T09:53:51.746Z,4044
2018-05-17T09:55:02.021Z,3972
2018-05-17T09:56:11.977Z,3920
2018-05-17T09:57:22.069Z,3880
2018-05-17T09:58:32.180Z,3864
2018-05-17T09:59:42.371Z,3852
2018-05-17T10:00:52.485Z,3868
2018-05-17T10:02:02.603Z,3880
2018-05-17T10:03:12.178Z,3920
2018-05-17T10:04:22.291Z,3972
2018-05-17T10:05:32.395Z,4024
2018-05-17T10:06:42.479Z,4088
2018-05-17T10:07:52.327Z,4152
2018-05-17T10:09:02.694Z,4256
2018-05-17T10:10:12.538Z,4396
2018-05-17T10:11:22.626Z,4540
2018-05-17T10:12:32.721Z,4684
2018-05-17T10:13:42.836Z,4820
2018-05-17T10:14:52.766Z,4924
2018-05-17T10:16:02.872Z,5000
2018-05-17T10:17:12.694Z,5060
2018-05-17T10:18:22.786Z,5104
2018-05-17T10:19:32.598Z,5208
2018-05-17T10:20:42.694Z,5296
2018-05-17T10:21:52.607Z,5376
2018-05-17T10:23:03.057Z,5440
2018-05-17T10:24:13.236Z,5492
2018-05-17T10:25:23.060Z,5568
2018-05-17T10:26:33.214Z,5620
2018-05-17T10:27:43.302Z,5652
2018-05-17T10:28:53.179Z,5648
2018-05-17T10:30:03.268Z,5648
2018-05-17T10:31:13.370Z,5640
2018-05-17T10:32:23.489Z,5512
2018-05-17T10:33:33.576Z,5228
2018-05-17T10:34:43.672Z,4872
2018-05-17T10:35:53.782Z,4432
2018-05-17T10:37:03.878Z,4068
2018-05-17T10:38:13.960Z,3932
2018-05-17T10:39:24.031Z,3996
2018-05-17T10:40:34.181Z,4136
2018-05-17T10:41:44.299Z,4368
2018-05-17T10:42:54.404Z,4640
2018-05-17T10:44:04.520Z,4904
2018-05-17T10:45:14.612Z,5040
2018-05-17T10:46:24.851Z,5036
2018-05-17T10:47:34.962Z,5092
2018-05-17T10:48:45.098Z,5172
2018-05-17T10:49:54.949Z,5140
2018-05-17T10:51:05.056Z,5232
2018-05-17T10:52:14.902Z,5216
2018-05-17T10:53:25.003Z,5192
2018-05-17T10:54:35.379Z,5308
2018-05-17T10:55:45.725Z,5332
2018-05-17T10:56:56.200Z,5128
2018-05-17T10:58:05.914Z,4732
2018-05-17T10:59:16.001Z,4216
2018-05-17T11:00:26.121Z,3732
2018-05-17T11:01:36.206Z,3452
2018-05-17T11:02:46.610Z,3208
2018-05-17T11:03:56.752Z,2948
2018-05-17T11:05:06.869Z,2704
2018-05-17T11:06:16.714Z,2644
2018-05-17T11:07:26.832Z,2812
2018-05-17T11:08:36.951Z,3076
2018-05-17T11:09:47.096Z,3416
2018-05-17T11:10:56.925Z,3716
2018-05-17T11:12:06.852Z,4024
2018-05-17T11:13:17.079Z,4216
2018-05-17T11:14:27.183Z,4364
2018-05-17T11:15:37.263Z,4528
2018-05-17T11:16:46.811Z,4580
2018-05-17T11:17:56.378Z,4576
2018-05-17T11:19:06.481Z,4576
2018-05-17T11:20:16.555Z,4524
2018-05-17T11:21:26.433Z,4412
2018-05-17T11:22:36.504Z,4328
2018-05-17T11:23:46.337Z,4296
2018-05-17T11:24:56.447Z,4276
2018-05-17T11:26:06.714Z,4260
2018-05-17T11:27:16.545Z,4232
2018-05-17T11:28:26.631Z,4208
2018-05-17T11:29:36.719Z,4212
2018-05-17T11:30:46.819Z,4228
2018-05-17T11:31:56.910Z,4248
2018-05-17T11:33:06.932Z,4272
2018-05-17T11:34:16.644Z,4300
2018-05-17T11:35:26.745Z,4264
2018-05-17T11:36:36.832Z,4316
2018-05-17T11:37:46.945Z,4308
2018-05-17T11:38:56.817Z,4268
2018-05-17T11:40:06.915Z,4236
2018-05-17T11:41:16.993Z,4224
2018-05-17T11:42:27.091Z,4228
2018-05-17T11:43:36.904Z,4252
2018-05-17T11:44:46.982Z,4256
2018-05-17T11:45:57.073Z,4296
2018-05-17T11:47:07.173Z,4336
2018-05-17T11:48:17.342Z,4408
2018-05-17T11:49:27.176Z,4480
2018-05-17T11:50:37.529Z,4544
2018-05-17T11:51:47.339Z,4564
2018-05-17T11:52:57.424Z,4576
2018-05-17T11:54:07.275Z,4564
2018-05-17T11:55:17.365Z,4552
2018-05-17T11:56:27.186Z,4540
2018-05-17T11:57:37.015Z,4564
2018-05-17T11:58:47.096Z,4628
2018-05-17T11:59:57.223Z,4708
2018-05-17T12:01:07.066Z,4796
2018-05-17T12:02:17.157Z,4908
2018-05-17T12:03:27.254Z,5036
2018-05-17T12:04:37.428Z,5152
2018-05-17T12:05:47.272Z,5244
2018-05-17T12:06:57.370Z,5352
2018-05-17T12:08:07.499Z,5468
2018-05-17T12:09:17.587Z,5544
2018-05-17T12:10:27.677Z,5584
2018-05-17T12:11:37.778Z,5552
2018-05-17T12:12:47.627Z,5516
2018-05-17T12:13:57.461Z,5480
2018-05-17T12:15:07.308Z,5316
2018-05-17T12:16:17.392Z,5076
2018-05-17T12:17:27.247Z,4896
2018-05-17T12:18:37.320Z,4696
2018-05-17T12:19:47.206Z,4512
2018-05-17T12:20:57.036Z,4436
2018-05-17T12:22:07.127Z,4472
2018-05-17T12:23:17.253Z,4592
2018-05-17T12:24:27.443Z,4552
2018-05-17T12:25:37.744Z,4444
2018-05-17T12:26:47.867Z,4428
2018-05-17T12:27:57.710Z,4544
2018-05-17T12:29:07.538Z,4792
2018-05-17T12:30:17.630Z,5164
2018-05-17T12:31:27.764Z,5572
2018-05-17T12:32:37.613Z,5876
2018-05-17T12:33:48.009Z,6028
2018-05-17T12:34:58.102Z,6140
2018-05-17T12:36:08.181Z,6252
2018-05-17T12:37:18.303Z,6344
2018-05-17T12:38:28.384Z,6520
2018-05-17T12:39:38.218Z,6752
2018-05-17T12:40:48.284Z,6936
2018-05-17T12:41:58.370Z,7140
2018-05-17T12:43:08.251Z,7372
2018-05-17T12:44:18.103Z,7412
2018-05-17T12:45:28.181Z,7256
2018-05-17T12:46:38.293Z,7228
2018-05-17T12:47:48.388Z,7244
2018-05-17T12:48:58.530Z,7248
2018-05-17T12:50:08.634Z,7388
2018-05-17T12:51:18.728Z,7624
2018-05-17T12:52:28.568Z,7852
2018-05-17T12:53:38.684Z,7580
2018-05-17T12:54:48.823Z,7176
2018-05-17T12:55:58.661Z,6932
2018-05-17T12:57:08.766Z,6648
2018-05-17T12:58:18.591Z,6424
2018-05-17T12:59:28.136Z,6200
2018-05-17T13:00:38.627Z,6064
2018-05-17T13:01:48.709Z,6060
2018-05-17T13:02:58.797Z,6220
2018-05-17T13:04:08.894Z,6560
2018-05-17T13:05:19.000Z,7108
2018-05-17T13:06:29.096Z,7348
2018-05-17T13:07:39.180Z,7772
2018-05-17T13:08:49.291Z,8328
2018-05-17T13:09:59.364Z,8708
2018-05-17T13:11:09.473Z,8592
2018-05-17T13:12:19.600Z,8364
2018-05-17T13:13:29.712Z,8360
2018-05-17T13:14:39.552Z,8584
2018-05-17T13:15:49.661Z,8628
2018-05-17T13:16:59.752Z,8776
2018-05-17T13:18:09.823Z,8332
2018-05-17T13:19:19.657Z,7512
2018-05-17T13:20:29.502Z,7036
2018-05-17T13:21:39.330Z,6548
2018-05-17T13:22:49.419Z,6132
2018-05-17T13:23:59.587Z,5832
2018-05-17T13:25:09.431Z,5600
2018-05-17T13:26:19.543Z,5384
2018-05-17T13:27:29.375Z,5160
2018-05-17T13:28:39.243Z,4888
2018-05-17T13:29:49.347Z,4620
2018-05-17T13:30:59.444Z,4448
2018-05-17T13:32:09.549Z,4284
2018-05-17T13:33:19.751Z,4156
2018-05-17T13:34:29.854Z,4040
2018-05-17T13:35:39.999Z,3896
2018-05-17T13:36:50.106Z,3796
2018-05-17T13:38:00.258Z,3700
2018-05-17T13:39:10.352Z,3632
2018-05-17T13:40:20.449Z,3580
2018-05-17T13:41:30.313Z,3552
2018-05-17T13:42:40.421Z,3520
2018-05-17T13:43:50.252Z,3484
2018-05-17T13:45:00.075Z,3424
2018-05-17T13:46:10.185Z,3312
2018-05-17T13:47:19.758Z,3308
2018-05-17T13:48:29.584Z,3372
2018-05-17T13:49:39.431Z,3416
2018-05-17T13:50:49.509Z,3460
2018-05-17T13:51:59.586Z,3504
2018-05-17T13:53:09.667Z,3544
2018-05-17T13:54:19.239Z,3536
2018-05-17T13:55:29.489Z,3536
2018-05-17T13:56:39.569Z,3536
2018-05-17T13:57:49.703Z,3556
2018-05-17T13:58:59.594Z,3540
2018-05-17T14:00:09.161Z,3512
2018-05-17T14:01:19.236Z,3488
2018-05-17T14:02:29.674Z,3440
2018-05-17T14:03:40.000Z,3432
2018-05-17T14:04:50.093Z,3332
2018-05-17T14:05:59.928Z,3540
2018-05-17T14:07:09.792Z,3568
2018-05-17T14:08:19.892Z,3580
2018-05-17T14:09:29.733Z,3604
2018-05-17T14:10:39.648Z,3588
2018-05-17T14:11:49.510Z,3664
2018-05-17T14:12:59.731Z,3716
2018-05-17T14:14:09.795Z,3748
2018-05-17T14:15:20.053Z,3804
2018-05-17T14:16:30.366Z,3848
2018-05-17T14:17:40.455Z,3952
2018-05-17T14:18:50.555Z,4084
2018-05-17T14:20:00.376Z,4228
2018-05-17T14:21:10.208Z,4416
2018-05-17T14:22:20.055Z,4564
2018-05-17T14:23:30.163Z,4620
2018-05-17T14:24:39.999Z,4736
2018-05-17T14:25:50.152Z,4800
2018-05-17T14:27:00.256Z,4988
2018-05-17T14:28:10.385Z,5160
2018-05-17T14:29:20.505Z,5332
2018-05-17T14:30:30.587Z,5504
2018-05-17T14:31:40.829Z,5680
2018-05-17T14:32:51.021Z,5840
2018-05-17T14:34:00.838Z,6048
2018-05-17T14:35:10.969Z,6084
2018-05-17T14:36:20.809Z,6092
2018-05-17T14:37:30.907Z,6052
2018-05-17T14:38:40.487Z,5980
2018-05-17T14:39:50.668Z,5936
2018-05-17T14:41:00.496Z,5892
2018-05-17T14:42:10.627Z,5876
2018-05-17T14:43:20.714Z,5784
2018-05-17T14:44:30.853Z,5804
2018-05-17T14:45:40.941Z,5832
2018-05-17T14:46:50.779Z,5864
2018-05-17T14:48:00.880Z,5840
2018-05-17T14:49:10.711Z,5804
2018-05-17T14:50:20.811Z,5784
2018-05-17T14:51:30.983Z,5772
2018-05-17T14:52:41.075Z,5804
2018-05-17T14:53:51.163Z,5748
2018-05-17T14:55:01.252Z,5720
2018-05-17T14:56:11.424Z,5688
2018-05-17T14:57:21.592Z,5700
2018-05-17T14:58:31.692Z,5712
2018-05-17T14:59:41.795Z,5708
2018-05-17T15:00:51.933Z,5724
2018-05-17T15:02:02.026Z,5684
2018-05-17T15:03:12.126Z,5652
2018-05-17T15:04:22.233Z,5656
2018-05-17T15:05:32.331Z,5680
2018-05-17T15:06:42.450Z,6208
2018-05-17T15:07:52.623Z,5792
2018-05-17T15:09:02.910Z,5832
2018-05-17T15:10:13.011Z,5668
2018-05-17T15:11:23.382Z,5544
2018-05-17T15:12:33.726Z,5696
2018-05-17T15:13:43.823Z,5648
2018-05-17T15:14:53.925Z,5500
2018-05-17T15:16:04.024Z,5452
2018-05-17T15:17:13.834Z,5548
2018-05-17T15:18:23.693Z,5564
2018-05-17T15:19:33.519Z,5320
2018-05-17T15:20:43.381Z,5256
2018-05-17T15:21:53.469Z,5272
2018-05-17T15:23:03.581Z,5336
2018-05-17T15:24:13.656Z,5576
2018-05-17T15:25:23.500Z,5852
2018-05-17T15:26:33.610Z,5672
2018-05-17T15:27:43.980Z,5488
2018-05-17T15:28:53.543Z,5464
2018-05-17T15:30:03.584Z,6096
2018-05-17T15:31:13.688Z,6168
2018-05-17T15:32:23.520Z,6144
2018-05-17T15:33:33.373Z,5284
2018-05-17T15:34:43.196Z,5000
2018-05-17T15:35:52.764Z,4780
2018-05-17T15:37:02.933Z,4680
2018-05-17T15:38:13.017Z,4580
2018-05-17T15:39:23.112Z,4516
2018-05-17T15:40:33.301Z,4564
2018-05-17T15:41:43.759Z,4740
2018-05-17T15:42:54.104Z,4632
2018-05-17T15:44:04.220Z,4720
2018-05-17T15:45:14.043Z,4844
2018-05-17T15:46:24.131Z,4660
2018-05-17T15:47:34.230Z,4576
2018-05-17T15:48:44.059Z,4528
2018-05-17T15:49:54.147Z,4516
2018-05-17T15:51:04.270Z,4560
2018-05-17T15:52:14.108Z,4760
2018-05-17T15:53:24.212Z,4392
2018-05-17T15:54:34.425Z,4192
2018-05-17T15:55:44.515Z,4032
2018-05-17T15:56:54.616Z,3944
2018-05-17T15:58:04.716Z,3900
2018-05-17T15:59:14.535Z,3868
2018-05-17T16:00:24.624Z,3800
2018-05-17T16:01:34.718Z,3672
2018-05-17T16:02:44.821Z,3492
2018-05-17T16:03:54.941Z,3336
2018-05-17T16:05:04.785Z,3172
2018-05-17T16:06:14.883Z,3000
2018-05-17T16:07:24.982Z,2840
2018-05-17T16:08:35.067Z,2716
2018-05-17T16:09:45.099Z,2536
2018-05-17T16:10:55.179Z,2368
2018-05-17T16:12:05.278Z,2184
2018-05-17T16:13:15.123Z,2048
2018-05-17T16:14:24.969Z,1916
2018-05-17T16:15:35.813Z,1772
2018-05-17T16:16:46.187Z,1648
2018-05-17T16:17:56.283Z,1532
2018-05-17T16:19:06.122Z,1428
2018-05-17T16:20:16.234Z,1344
2018-05-17T16:21:26.121Z,1280